sensor_id;sensor_type;location;lat;lon;timestamp;pressure;altitude;pressure_sealevel;temperature;humidity
22930;BME280;11630;42.660;23.292;2023-03-03T00:02:27;68139.05;;;5.41;100.00
22930;BME280;11630;42.660;23.292;2023-03-03T00:04:58;68147.17;;;5.51;100.00
22930;BME280;11630;42.660;23.292;2023-03-03T00:07:29;68139.83;;;5.38;100.00
22930;BME280;11630;42.660;23.292;2023-03-03T00:10:01;68130.13;;;5.34;100.00
22930;BME280;11630;42.660;23.292;2023-03-03T00:12:33;68142.87;;;5.49;100.00
22930;BME280;11630;42.660;23.292;2023-03-03T00:15:15;68161.55;;;5.68;100.00
22930;BME280;11630;42.660;23.292;2023-03-03T00:17:46;68153.96;;;5.58;100.00
22930;BME280;11630;42.660;23.292;2023-03-03T00:20:32;68146.91;;;5.52;100.00
22930;BME280;11630;42.660;23.292;2023-03-03T00:23:16;68163.98;;;5.69;100.00
22930;BME280;11630;42.660;23.292;2023-03-03T00:25:49;68130.95;;;5.38;100.00
22930;BME280;11630;42.660;23.292;2023-03-03T00:28:31;68139.61;;;5.46;100.00
22930;BME280;11630;42.660;23.292;2023-03-03T00:31:10;68157.75;;;5.62;100.00
22930;BME280;11630;42.660;23.292;2023-03-03T00:33:37;68152.63;;;5.61;100.00
22930;BME280;11630;42.660;23.292;2023-03-03T00:36:35;68105.25;;;5.16;100.00
22930;BME280;11630;42.660;23.292;2023-03-03T00:39:16;68138.80;;;5.44;100.00
22930;BME280;11630;42.660;23.292;2023-03-03T00:41:45;68140.42;;;5.46;100.00
22930;BME280;11630;42.660;23.292;2023-03-03T00:46:56;68148.83;;;5.55;100.00
22930;BME280;11630;42.660;23.292;2023-03-03T00:49:27;68144.74;;;5.50;100.00
22930;BME280;11630;42.660;23.292;2023-03-03T00:51:58;68141.02;;;5.54;100.00
22930;BME280;11630;42.660;23.292;2023-03-03T00:54:29;68128.50;;;5.35;100.00
22930;BME280;11630;42.660;23.292;2023-03-03T00:57:00;68132.28;;;5.36;100.00
22930;BME280;11630;42.660;23.292;2023-03-03T00:59:31;68149.08;;;5.51;100.00
22930;BME280;11630;42.660;23.292;2023-03-03T01:02:02;68154.80;;;5.63;100.00
22930;BME280;11630;42.660;23.292;2023-03-03T01:04:32;68142.59;;;5.48;100.00
22930;BME280;11630;42.660;23.292;2023-03-03T01:07:03;68162.08;;;5.66;100.00
22930;BME280;11630;42.660;23.292;2023-03-03T01:09:34;68183.47;;;5.82;100.00
22930;BME280;11630;42.660;23.292;2023-03-03T01:12:05;68159.64;;;5.65;100.00
22930;BME280;11630;42.660;23.292;2023-03-03T01:14:38;68176.17;;;5.79;100.00
22930;BME280;11630;42.660;23.292;2023-03-03T01:17:09;68173.17;;;5.75;100.00
22930;BME280;11630;42.660;23.292;2023-03-03T01:19:40;68182.38;;;5.81;100.00
22930;BME280;11630;42.660;23.292;2023-03-03T01:22:11;68170.78;;;5.79;100.00
22930;BME280;11630;42.660;23.292;2023-03-03T01:24:42;68183.23;;;5.88;100.00
22930;BME280;11630;42.660;23.292;2023-03-03T01:27:15;68188.09;;;5.90;100.00
22930;BME280;11630;42.660;23.292;2023-03-03T01:29:46;68185.92;;;5.88;100.00
22930;BME280;11630;42.660;23.292;2023-03-03T01:32:16;68168.56;;;5.72;100.00
22930;BME280;11630;42.660;23.292;2023-03-03T01:34:47;68173.44;;;5.74;100.00
22930;BME280;11630;42.660;23.292;2023-03-03T01:37:18;68167.22;;;5.72;100.00
22930;BME280;11630;42.660;23.292;2023-03-03T01:39:55;68184.58;;;5.88;100.00
22930;BME280;11630;42.660;23.292;2023-03-03T01:42:26;68201.41;;;6.08;100.00
22930;BME280;11630;42.660;23.292;2023-03-03T01:45:44;68197.05;;;6.02;100.00
22930;BME280;11630;42.660;23.292;2023-03-03T01:47:54;68200.03;;;6.03;100.00
22930;BME280;11630;42.660;23.292;2023-03-03T01:50:32;68195.94;;;5.96;100.00
22930;BME280;11630;42.660;23.292;2023-03-03T01:53:03;68190.28;;;5.94;100.00
22930;BME280;11630;42.660;23.292;2023-03-03T01:55:36;68208.67;;;6.08;100.00
22930;BME280;11630;42.660;23.292;2023-03-03T01:58:08;68198.95;;;6.02;100.00
22930;BME280;11630;42.660;23.292;2023-03-03T02:00:40;68217.34;;;6.16;100.00
22930;BME280;11630;42.660;23.292;2023-03-03T02:03:10;68216.55;;;6.17;100.00
22930;BME280;11630;42.660;23.292;2023-03-03T02:05:41;68206.53;;;6.09;100.00
22930;BME280;11630;42.660;23.292;2023-03-03T02:08:14;68216.27;;;6.15;100.00
22930;BME280;11630;42.660;23.292;2023-03-03T02:10:45;68221.69;;;6.20;100.00
22930;BME280;11630;42.660;23.292;2023-03-03T02:13:18;68178.36;;;5.83;100.00
22930;BME280;11630;42.660;23.292;2023-03-03T02:15:48;68201.64;;;6.02;100.00
22930;BME280;11630;42.660;23.292;2023-03-03T02:18:20;68226.83;;;6.24;100.00
22930;BME280;11630;42.660;23.292;2023-03-03T02:24:07;68218.41;;;6.15;100.00
22930;BME280;11630;42.660;23.292;2023-03-03T02:26:38;68211.10;;;6.09;100.00
22930;BME280;11630;42.660;23.292;2023-03-03T02:29:09;68220.34;;;6.20;100.00
22930;BME280;11630;42.660;23.292;2023-03-03T02:31:40;68200.55;;;6.01;100.00
22930;BME280;11630;42.660;23.292;2023-03-03T02:34:11;68204.63;;;6.08;100.00
22930;BME280;11630;42.660;23.292;2023-03-03T02:36:40;68172.91;;;5.76;100.00
22930;BME280;11630;42.660;23.292;2023-03-03T02:39:21;68175.37;;;5.77;100.00
22930;BME280;11630;42.660;23.292;2023-03-03T02:44:48;68164.75;;;5.63;100.00
22930;BME280;11630;42.660;23.292;2023-03-03T02:47:19;68170.52;;;5.77;100.00
22930;BME280;11630;42.660;23.292;2023-03-03T02:49:50;68156.92;;;5.60;100.00
22930;BME280;11630;42.660;23.292;2023-03-03T02:52:21;68177.00;;;5.81;100.00
22930;BME280;11630;42.660;23.292;2023-03-03T02:54:52;68173.76;;;5.78;100.00
22930;BME280;11630;42.660;23.292;2023-03-03T02:57:23;68174.26;;;5.76;100.00
22930;BME280;11630;42.660;23.292;2023-03-03T02:59:54;68152.86;;;5.55;100.00
22930;BME280;11630;42.660;23.292;2023-03-03T03:02:25;68143.68;;;5.49;100.00
22930;BME280;11630;42.660;23.292;2023-03-03T03:04:55;68139.86;;;5.43;100.00
22930;BME280;11630;42.660;23.292;2023-03-03T03:07:26;68141.25;;;5.48;100.00
22930;BME280;11630;42.660;23.292;2023-03-03T03:09:57;68125.27;;;5.32;100.00
22930;BME280;11630;42.660;23.292;2023-03-03T03:12:28;68141.25;;;5.48;100.00
22930;BME280;11630;42.660;23.292;2023-03-03T03:14:59;68133.67;;;5.41;100.00
22930;BME280;11630;42.660;23.292;2023-03-03T03:17:30;68137.72;;;5.43;100.00
22930;BME280;11630;42.660;23.292;2023-03-03T03:20:01;68123.36;;;5.29;100.00
22930;BME280;11630;42.660;23.292;2023-03-03T03:22:32;68108.51;;;5.19;100.00
22930;BME280;11630;42.660;23.292;2023-03-03T03:25:03;68098.45;;;5.06;100.00
22930;BME280;11630;42.660;23.292;2023-03-03T03:27:33;68118.78;;;5.26;100.00
22930;BME280;11630;42.660;23.292;2023-03-03T03:30:05;68116.09;;;5.26;100.00
22930;BME280;11630;42.660;23.292;2023-03-03T03:32:36;68124.75;;;5.34;100.00
22930;BME280;11630;42.660;23.292;2023-03-03T03:35:07;68125.01;;;5.33;100.00
22930;BME280;11630;42.660;23.292;2023-03-03T03:37:38;68108.47;;;5.17;100.00
22930;BME280;11630;42.660;23.292;2023-03-03T03:40:10;68123.90;;;5.27;100.00
22930;BME280;11630;42.660;23.292;2023-03-03T03:42:41;68078.45;;;4.90;100.00
22930;BME280;11630;42.660;23.292;2023-03-03T03:45:12;68094.68;;;5.05;100.00
22930;BME280;11630;42.660;23.292;2023-03-03T03:47:43;68092.53;;;5.03;100.00
22930;BME280;11630;42.660;23.292;2023-03-03T03:50:14;68099.53;;;5.05;100.00
22930;BME280;11630;42.660;23.292;2023-03-03T03:52:45;68087.39;;;4.97;100.00
22930;BME280;11630;42.660;23.292;2023-03-03T03:55:16;68097.41;;;5.10;100.00
22930;BME280;11630;42.660;23.292;2023-03-03T03:57:47;68111.74;;;5.22;100.00
22930;BME280;11630;42.660;23.292;2023-03-03T04:00:17;68126.89;;;5.33;100.00
22930;BME280;11630;42.660;23.292;2023-03-03T04:02:48;68139.59;;;5.44;100.00
22930;BME280;11630;42.660;23.292;2023-03-03T04:05:20;68147.74;;;5.54;100.00
22930;BME280;11630;42.660;23.292;2023-03-03T04:07:50;68152.04;;;5.53;100.00
22930;BME280;11630;42.660;23.292;2023-03-03T04:10:19;68156.91;;;5.57;100.00
22930;BME280;11630;42.660;23.292;2023-03-03T04:12:50;68161.81;;;5.67;100.00
22930;BME280;11630;42.660;23.292;2023-03-03T04:15:21;68154.75;;;5.58;100.00
22930;BME280;11630;42.660;23.292;2023-03-03T04:17:52;68158.84;;;5.65;100.00
22930;BME280;11630;42.660;23.292;2023-03-03T04:20:23;68146.39;;;5.54;100.00
22930;BME280;11630;42.660;23.292;2023-03-03T04:22:54;68106.86;;;5.15;100.00
22930;BME280;11630;42.660;23.292;2023-03-03T04:25:25;68120.41;;;5.30;100.00
22930;BME280;11630;42.660;23.292;2023-03-03T04:27:55;68135.80;;;5.38;100.00
22930;BME280;11630;42.660;23.292;2023-03-03T04:30:26;68136.36;;;5.41;100.00
22930;BME280;11630;42.660;23.292;2023-03-03T04:32:57;68125.27;;;5.32;100.00
22930;BME280;11630;42.660;23.292;2023-03-03T04:35:28;68126.35;;;5.33;100.00
22930;BME280;11630;42.660;23.292;2023-03-03T04:37:59;68120.42;;;5.32;100.00
22930;BME280;11630;42.660;23.292;2023-03-03T04:40:31;68120.41;;;5.30;100.00
22930;BME280;11630;42.660;23.292;2023-03-03T04:43:04;68120.41;;;5.30;100.00
22930;BME280;11630;42.660;23.292;2023-03-03T04:45:35;68148.27;;;5.52;100.00
22930;BME280;11630;42.660;23.292;2023-03-03T04:48:06;68176.16;;;5.76;100.00
22930;BME280;11630;42.660;23.292;2023-03-03T04:50:39;68152.37;;;5.62;100.00
22930;BME280;11630;42.660;23.292;2023-03-03T04:53:12;68154.74;;;5.55;100.00
22930;BME280;11630;42.660;23.292;2023-03-03T04:55:42;68157.20;;;5.61;100.00
22930;BME280;11630;42.660;23.292;2023-03-03T04:58:13;68172.34;;;5.73;100.00
22930;BME280;11630;42.660;23.292;2023-03-03T05:00:52;68168.55;;;5.69;100.00
22930;BME280;11630;42.660;23.292;2023-03-03T05:03:18;68165.61;;;5.73;100.00
22930;BME280;11630;42.660;23.292;2023-03-03T05:05:49;68173.22;;;5.80;100.00
22930;BME280;11630;42.660;23.292;2023-03-03T05:08:18;68185.13;;;5.86;100.00
22930;BME280;11630;42.660;23.292;2023-03-03T05:10:53;68158.27;;;5.60;100.00
22930;BME280;11630;42.660;23.292;2023-03-03T05:13:24;68126.35;;;5.33;100.00
22930;BME280;11630;42.660;23.292;2023-03-03T05:15:58;68136.08;;;5.42;100.00
22930;BME280;11630;42.660;23.292;2023-03-03T05:18:28;68120.14;;;5.31;100.00
22930;BME280;11630;42.660;23.292;2023-03-03T05:21:00;68133.12;;;5.40;100.00
22930;BME280;11630;42.660;23.292;2023-03-03T05:23:31;68140.95;;;5.46;100.00
22930;BME280;11630;42.660;23.292;2023-03-03T05:26:04;68149.09;;;5.54;100.00
22930;BME280;11630;42.660;23.292;2023-03-03T05:28:34;68143.97;;;5.53;100.00
22930;BME280;11630;42.660;23.292;2023-03-03T05:31:05;68149.91;;;5.56;100.00
22930;BME280;11630;42.660;23.292;2023-03-03T05:33:35;68158.84;;;5.63;100.00
22930;BME280;11630;42.660;23.292;2023-03-03T05:36:06;68174.02;;;5.77;100.00
22930;BME280;11630;42.660;23.292;2023-03-03T05:38:37;68172.36;;;5.75;100.00
22930;BME280;11630;42.660;23.292;2023-03-03T05:41:08;68155.59;;;5.62;100.00
22930;BME280;11630;42.660;23.292;2023-03-03T05:43:39;68165.07;;;5.70;100.00
22930;BME280;11630;42.660;23.292;2023-03-03T05:46:10;68179.69;;;5.81;100.00
22930;BME280;11630;42.660;23.292;2023-03-03T05:48:41;68197.33;;;6.01;100.00
22930;BME280;11630;42.660;23.292;2023-03-03T05:51:12;68488.58;;;8.67;100.00
22930;BME280;11630;42.660;23.292;2023-03-03T05:53:42;68615.69;;;9.76;100.00
22930;BME280;11630;42.660;23.292;2023-03-03T05:56:12;68619.77;;;9.86;100.00
22930;BME280;11630;42.660;23.292;2023-03-03T05:58:43;68452.45;;;8.31;100.00
22930;BME280;11630;42.660;23.292;2023-03-03T06:01:14;68439.45;;;8.21;100.00
22930;BME280;11630;42.660;23.292;2023-03-03T06:03:45;68317.38;;;7.14;100.00
22930;BME280;11630;42.660;23.292;2023-03-03T06:06:16;68260.17;;;6.58;100.00
22930;BME280;11630;42.660;23.292;2023-03-03T06:08:46;68250.94;;;6.47;100.00
22930;BME280;11630;42.660;23.292;2023-03-03T06:11:17;68189.45;;;5.92;100.00
22930;BME280;11630;42.660;23.292;2023-03-03T06:13:48;68203.27;;;6.04;100.00
22930;BME280;11630;42.660;23.292;2023-03-03T06:16:18;68214.89;;;6.13;100.00
22930;BME280;11630;42.660;23.292;2023-03-03T06:18:49;68167.50;;;5.71;100.00
22930;BME280;11630;42.660;23.292;2023-03-03T06:21:20;68177.26;;;5.80;100.00
22930;BME280;11630;42.660;23.292;2023-03-03T06:23:51;68153.41;;;5.58;100.00
22930;BME280;11630;42.660;23.292;2023-03-03T06:26:22;68111.47;;;5.21;100.00
22930;BME280;11630;42.660;23.292;2023-03-03T06:28:52;68135.03;;;5.43;100.00
22930;BME280;11630;42.660;23.292;2023-03-03T06:31:23;68167.78;;;5.72;100.00
22930;BME280;11630;42.660;23.292;2023-03-03T06:33:54;68179.42;;;5.79;100.00
22930;BME280;11630;42.660;23.292;2023-03-03T06:36:24;68190.54;;;5.93;100.00
22930;BME280;11630;42.660;23.292;2023-03-03T06:38:53;68182.69;;;5.85;100.00
22930;BME280;11630;42.660;23.292;2023-03-03T06:41:24;68176.20;;;5.81;100.00
22930;BME280;11630;42.660;23.292;2023-03-03T06:43:55;68208.15;;;6.10;100.00
22930;BME280;11630;42.660;23.292;2023-03-03T06:46:26;68207.61;;;6.10;100.00
22930;BME280;11630;42.660;23.292;2023-03-03T06:48:58;68177.00;;;5.81;100.00
22930;BME280;11630;42.660;23.292;2023-03-03T06:51:30;68182.69;;;5.85;100.00
22930;BME280;11630;42.660;23.292;2023-03-03T06:54:23;68181.34;;;5.85;100.00
22930;BME280;11630;42.660;23.292;2023-03-03T06:56:37;68171.88;;;5.80;100.00
22930;BME280;11630;42.660;23.292;2023-03-03T06:59:16;68188.92;;;5.92;100.00
22930;BME280;11630;42.660;23.292;2023-03-03T07:01:48;68211.93;;;6.11;100.00
22930;BME280;11630;42.660;23.292;2023-03-03T07:04:32;68204.09;;;6.06;100.00
22930;BME280;11630;42.660;23.292;2023-03-03T07:07:15;68185.41;;;5.90;100.00
22930;BME280;11630;42.660;23.292;2023-03-03T07:09:46;68236.59;;;6.35;100.00
22930;BME280;11630;42.660;23.292;2023-03-03T07:12:28;68205.97;;;6.06;100.00
22930;BME280;11630;42.660;23.292;2023-03-03T07:17:45;68217.33;;;6.14;100.00
22930;BME280;11630;42.660;23.292;2023-03-03T07:20:27;68236.86;;;6.37;100.00
22930;BME280;11630;42.660;23.292;2023-03-03T07:22:50;68241.46;;;6.37;100.00
22930;BME280;11630;42.660;23.292;2023-03-03T07:25:35;68244.44;;;6.41;100.00
22930;BME280;11630;42.660;23.292;2023-03-03T07:30:48;68249.31;;;6.46;100.00
22930;BME280;11630;42.660;23.292;2023-03-03T07:33:27;68265.58;;;6.61;100.00
22930;BME280;11630;42.660;23.292;2023-03-03T07:35:58;68247.96;;;6.43;100.00
22930;BME280;11630;42.660;23.292;2023-03-03T07:38:42;68256.66;;;6.56;100.00
22930;BME280;11630;42.660;23.292;2023-03-03T07:41:15;68256.08;;;6.51;100.00
22930;BME280;11630;42.660;23.292;2023-03-03T07:48:55;68230.61;;;6.25;100.00
22930;BME280;11630;42.660;23.292;2023-03-03T07:51:36;68229.53;;;6.26;100.00
22930;BME280;11630;42.660;23.292;2023-03-03T07:59:47;68239.57;;;6.39;100.00
22930;BME280;11630;42.660;23.292;2023-03-03T08:04:59;68264.49;;;6.60;100.00
22930;BME280;11630;42.660;23.292;2023-03-03T08:07:31;68264.49;;;6.60;100.00
22930;BME280;11630;42.660;23.292;2023-03-03T08:10:06;68247.96;;;6.43;100.00
22930;BME280;11630;42.660;23.292;2023-03-03T08:12:43;68279.13;;;6.73;100.00
22930;BME280;11630;42.660;23.292;2023-03-03T08:15:21;68283.45;;;6.77;100.00
22930;BME280;11630;42.660;23.292;2023-03-03T08:17:54;68240.38;;;6.36;100.00
22930;BME280;11630;42.660;23.292;2023-03-03T08:20:45;68257.22;;;6.59;100.00
22930;BME280;11630;42.660;23.292;2023-03-03T08:23:19;68289.44;;;6.85;100.00
22930;BME280;11630;42.660;23.292;2023-03-03T08:25:51;68294.05;;;6.90;100.00
22930;BME280;11630;42.660;23.292;2023-03-03T08:28:22;68274.25;;;6.69;100.00
22930;BME280;11630;42.660;23.292;2023-03-03T08:30:52;68303.25;;;6.94;100.00
22930;BME280;11630;42.660;23.292;2023-03-03T08:33:23;68265.58;;;6.61;100.00
22930;BME280;11630;42.660;23.292;2023-03-03T08:35:54;68240.92;;;6.39;100.00
22930;BME280;11630;42.660;23.292;2023-03-03T08:38:24;68266.11;;;6.61;100.00
22930;BME280;11630;42.660;23.292;2023-03-03T08:40:55;68236.85;;;6.34;100.00
22930;BME280;11630;42.660;23.292;2023-03-03T08:43:26;68253.67;;;6.52;100.00
22930;BME280;11630;42.660;23.292;2023-03-03T08:45:59;68241.74;;;6.41;100.00
22930;BME280;11630;42.660;23.292;2023-03-03T08:48:32;68266.38;;;6.60;100.00
22930;BME280;11630;42.660;23.292;2023-03-03T08:51:03;68247.70;;;6.47;100.00
22930;BME280;11630;42.660;23.292;2023-03-03T08:53:34;68292.39;;;6.82;100.00
22930;BME280;11630;42.660;23.292;2023-03-03T08:56:06;68308.92;;;6.98;100.00
22930;BME280;11630;42.660;23.292;2023-03-03T08:58:37;68314.09;;;7.04;100.00
22930;BME280;11630;42.660;23.292;2023-03-03T09:01:09;68327.10;;;7.16;100.00
22930;BME280;11630;42.660;23.292;2023-03-03T09:03:39;68334.43;;;7.24;100.00
22930;BME280;11630;42.660;23.292;2023-03-03T09:06:11;68334.45;;;7.29;100.00
22930;BME280;11630;42.660;23.292;2023-03-03T09:08:41;68340.09;;;7.23;100.00
22930;BME280;11630;42.660;23.292;2023-03-03T09:11:18;68304.07;;;6.96;100.00
22930;BME280;11630;42.660;23.292;2023-03-03T09:13:47;68328.99;;;7.19;100.00
22930;BME280;11630;42.660;23.292;2023-03-03T09:16:18;68342.86;;;7.38;100.00
22930;BME280;11630;42.660;23.292;2023-03-03T09:18:49;68360.73;;;7.47;100.00
22930;BME280;11630;42.660;23.292;2023-03-03T09:21:21;68304.88;;;6.98;100.00
22930;BME280;11630;42.660;23.292;2023-03-03T09:23:59;68295.92;;;6.86;100.00
22930;BME280;11630;42.660;23.292;2023-03-03T09:26:44;68298.92;;;6.92;100.00
22930;BME280;11630;42.660;23.292;2023-03-03T09:29:26;68311.11;;;7.02;100.00
22930;BME280;11630;42.660;23.292;2023-03-03T09:32:21;68351.79;;;7.40;100.00
22930;BME280;11630;42.660;23.292;2023-03-03T09:34:41;68366.97;;;7.51;100.00
22930;BME280;11630;42.660;23.292;2023-03-03T09:39:52;68368.86;;;7.54;100.00
22930;BME280;11630;42.660;23.292;2023-03-03T09:46:17;68293.23;;;6.91;100.00
22930;BME280;11630;42.660;23.292;2023-03-03T09:51:08;68275.03;;;6.66;100.00
22930;BME280;11630;42.660;23.292;2023-03-03T09:59:22;68260.72;;;6.61;100.00
22930;BME280;11630;42.660;23.292;2023-03-03T10:01:50;68294.05;;;6.90;100.00
22930;BME280;11630;42.660;23.292;2023-03-03T10:04:38;68327.09;;;7.13;100.00
22930;BME280;11630;42.660;23.292;2023-03-03T10:07:35;68335.53;;;7.27;100.00
22930;BME280;11630;42.660;23.292;2023-03-03T10:10:11;68363.17;;;7.48;100.00
22930;BME280;11630;42.660;23.292;2023-03-03T10:12:47;68363.18;;;7.50;100.00
22930;BME280;11630;42.660;23.292;2023-03-03T10:15:20;68350.98;;;7.43;100.00
22930;BME280;11630;42.660;23.292;2023-03-03T10:17:57;68358.03;;;7.47;100.00
22930;BME280;11630;42.660;23.292;2023-03-03T10:44:46;68272.91;;;6.69;100.00
22930;BME280;11630;42.660;23.292;2023-03-03T10:47:40;68286.98;;;6.79;100.00
22930;BME280;11630;42.660;23.292;2023-03-03T10:50:44;68292.13;;;6.85;100.00
22930;BME280;11630;42.660;23.292;2023-03-03T10:53:21;68300.25;;;6.90;100.00
22930;BME280;11630;42.660;23.292;2023-03-03T11:01:15;68297.28;;;6.91;100.00
22930;BME280;11630;42.660;23.292;2023-03-03T11:20:05;68291.55;;;6.77;100.00
22930;BME280;11630;42.660;23.292;2023-03-03T11:22:40;68283.98;;;6.75;100.00
22930;BME280;11630;42.660;23.292;2023-03-03T11:28:25;68297.02;;;6.92;100.00
22930;BME280;11630;42.660;23.292;2023-03-03T11:31:03;68301.38;;;6.96;100.00
22930;BME280;11630;42.660;23.292;2023-03-03T11:33:46;68336.31;;;7.24;100.00
22930;BME280;11630;42.660;23.292;2023-03-03T11:39:07;68326.84;;;7.17;100.00
22930;BME280;11630;42.660;23.292;2023-03-03T11:41:57;68289.70;;;6.84;100.00
22930;BME280;11630;42.660;23.292;2023-03-03T11:44:31;68294.82;;;6.83;100.00
22930;BME280;11630;42.660;23.292;2023-03-03T11:47:20;68310.84;;;7.03;100.00
22930;BME280;11630;42.660;23.292;2023-03-03T11:50:09;68311.40;;;7.04;100.00
22930;BME280;11630;42.660;23.292;2023-03-03T11:55:44;68307.86;;;6.99;100.00
22930;BME280;11630;42.660;23.292;2023-03-03T11:58:33;68291.03;;;6.79;100.00
22930;BME280;11630;42.660;23.292;2023-03-03T12:07:01;68307.05;;;7.00;100.00
22930;BME280;11630;42.660;23.292;2023-03-03T12:10:31;68311.93;;;7.04;100.00
22930;BME280;11630;42.660;23.292;2023-03-03T12:12:20;68317.90;;;7.10;100.00
22930;BME280;11630;42.660;23.292;2023-03-03T12:14:58;68323.84;;;7.13;100.00
22930;BME280;11630;42.660;23.292;2023-03-03T12:20:28;68327.94;;;7.20;100.00
22930;BME280;11630;42.660;23.292;2023-03-03T12:23:24;68326.03;;;7.20;100.00
22930;BME280;11630;42.660;23.292;2023-03-03T12:25:56;68323.03;;;7.11;100.00
22930;BME280;11630;42.660;23.292;2023-03-03T12:28:31;68324.10;;;7.12;100.00
22930;BME280;11630;42.660;23.292;2023-03-03T12:31:15;68358.30;;;7.46;100.00
22930;BME280;11630;42.660;23.292;2023-03-03T12:36:49;68356.94;;;7.43;100.00
22930;BME280;11630;42.660;23.292;2023-03-03T12:39:42;68340.41;;;7.32;100.00
22930;BME280;11630;42.660;23.292;2023-03-03T12:45:43;68330.08;;;7.20;100.00
22930;BME280;11630;42.660;23.292;2023-03-03T12:47:39;68334.44;;;7.26;100.00
22930;BME280;11630;42.660;23.292;2023-03-03T12:50:23;68304.61;;;6.99;100.00
22930;BME280;11630;42.660;23.292;2023-03-03T12:53:08;68304.33;;;6.95;100.00
22930;BME280;11630;42.660;23.292;2023-03-03T12:56:03;68321.41;;;7.12;100.00
22930;BME280;11630;42.660;23.292;2023-03-03T13:01:39;68278.87;;;6.74;100.00
22930;BME280;11630;42.660;23.292;2023-03-03T13:07:10;68301.59;;;6.90;100.00
22930;BME280;11630;42.660;23.292;2023-03-03T13:09:49;68328.18;;;7.14;100.00
22930;BME280;11630;42.660;23.292;2023-03-03T13:12:54;68335.22;;;7.21;100.00
22930;BME280;11630;42.660;23.292;2023-03-03T13:15:22;68305.16;;;6.99;100.00
22930;BME280;11630;42.660;23.292;2023-03-03T13:18:15;68350.71;;;7.41;100.00
22930;BME280;11630;42.660;23.292;2023-03-03T13:20:44;68352.33;;;7.40;100.00
22930;BME280;11630;42.660;23.292;2023-03-03T13:23:38;68314.09;;;7.04;100.00
22930;BME280;11630;42.660;23.292;2023-03-03T13:26:15;68315.19;;;7.07;100.00
22930;BME280;11630;42.660;23.292;2023-03-03T13:29:03;68320.34;;;7.11;100.00
22930;BME280;11630;42.660;23.292;2023-03-03T13:32:28;68370.77;;;7.57;100.00
22930;BME280;11630;42.660;23.292;2023-03-03T13:37:10;68373.74;;;7.59;100.00
22930;BME280;11630;42.660;23.292;2023-03-03T13:39:51;68355.30;;;7.42;100.00
22930;BME280;11630;42.660;23.292;2023-03-03T13:42:39;68365.06;;;7.51;100.00
22930;BME280;11630;42.660;23.292;2023-03-03T13:45:00;68351.79;;;7.40;100.00
22930;BME280;11630;42.660;23.292;2023-03-03T13:50:18;68372.39;;;7.59;100.00
22930;BME280;11630;42.660;23.292;2023-03-03T13:55:48;68387.59;;;7.75;100.00
22930;BME280;11630;42.660;23.292;2023-03-03T13:58:43;68375.94;;;7.65;100.00
22930;BME280;11630;42.660;23.292;2023-03-03T14:01:20;68343.39;;;7.36;100.00
22930;BME280;11630;42.660;23.292;2023-03-03T14:04:04;68369.69;;;7.56;100.00
22930;BME280;11630;42.660;23.292;2023-03-03T14:06:32;68384.05;;;7.70;100.00
22930;BME280;11630;42.660;23.292;2023-03-03T14:09:18;68362.88;;;7.49;100.00
22930;BME280;11630;42.660;23.292;2023-03-03T14:17:34;68398.70;;;7.81;100.00
22930;BME280;11630;42.660;23.292;2023-03-03T14:20:55;68412.02;;;7.97;100.00
22930;BME280;11630;42.660;23.292;2023-03-03T14:23:16;68402.24;;;7.88;100.00
22930;BME280;11630;42.660;23.292;2023-03-03T14:28:43;68390.84;;;7.75;100.00
22930;BME280;11630;42.660;23.292;2023-03-03T14:31:21;68380.25;;;7.64;100.00
22930;BME280;11630;42.660;23.292;2023-03-03T14:34:08;68318.73;;;7.14;100.00
22930;BME280;11630;42.660;23.292;2023-03-03T14:36:35;68344.99;;;7.32;100.00
22930;BME280;11630;42.660;23.292;2023-03-03T14:41:53;68362.92;;;7.54;100.00
22930;BME280;11630;42.660;23.292;2023-03-03T14:44:29;68364.52;;;7.48;100.00
22930;BME280;11630;42.660;23.292;2023-03-03T14:47:20;68389.49;;;7.75;100.00
22930;BME280;11630;42.660;23.292;2023-03-03T14:49:48;68381.06;;;7.64;100.00
22930;BME280;11630;42.660;23.292;2023-03-03T14:52:27;68356.92;;;7.41;100.00
22930;BME280;11630;42.660;23.292;2023-03-03T14:54:58;68345.55;;;7.33;100.00
22930;BME280;11630;42.660;23.292;2023-03-03T14:57:40;68378.36;;;7.64;100.00
22930;BME280;11630;42.660;23.292;2023-03-03T15:05:51;68374.81;;;7.55;100.00
22930;BME280;11630;42.660;23.292;2023-03-03T15:08:33;68383.77;;;7.66;100.00
22930;BME280;11630;42.660;23.292;2023-03-03T15:11:19;68338.24;;;7.32;100.00
22930;BME280;11630;42.660;23.292;2023-03-03T15:13:48;68360.47;;;7.48;100.00
22930;BME280;11630;42.660;23.292;2023-03-03T15:16:23;68340.41;;;7.32;100.00
22930;BME280;11630;42.660;23.292;2023-03-03T15:21:39;68357.47;;;7.44;100.00
22930;BME280;11630;42.660;23.292;2023-03-03T15:24:13;68329.02;;;7.21;100.00
22930;BME280;11630;42.660;23.292;2023-03-03T15:26:52;68324.13;;;7.14;100.00
22930;BME280;11630;42.660;23.292;2023-03-03T15:29:36;68317.59;;;7.06;100.00
22930;BME280;11630;42.660;23.292;2023-03-03T15:40:35;68343.07;;;7.27;100.00
22930;BME280;11630;42.660;23.292;2023-03-03T15:43:21;68328.19;;;7.17;100.00
22930;BME280;11630;42.660;23.292;2023-03-03T15:46:05;68346.92;;;7.40;100.00
22930;BME280;11630;42.660;23.292;2023-03-03T15:54:28;68345.00;;;7.35;100.00
22930;BME280;11630;42.660;23.292;2023-03-03T15:57:04;68363.45;;;7.52;100.00
22930;BME280;11630;42.660;23.292;2023-03-03T15:59:54;68334.43;;;7.24;100.00
22930;BME280;11630;42.660;23.292;2023-03-03T16:05:22;68295.67;;;6.92;100.00
22930;BME280;11630;42.660;23.292;2023-03-03T16:08:09;68297.02;;;6.92;100.00
22930;BME280;11630;42.660;23.292;2023-03-03T16:11:07;68312.19;;;7.01;100.00
22930;BME280;11630;42.660;23.292;2023-03-03T16:13:57;68307.61;;;7.03;100.00